createdAt,value
2022-12-05T00:02:06.961Z,102.03
2022-12-05T00:04:35.807Z,101.07
2022-12-05T00:07:04.445Z,101.87
2022-12-05T00:09:32.971Z,105.23
2022-12-05T00:12:01.380Z,97.67
2022-12-05T00:14:29.909Z,93.13
2022-12-05T00:16:58.414Z,93.07
2022-12-05T00:19:26.965Z,91.07
2022-12-05T00:21:55.427Z,90.67
2022-12-05T00:24:23.837Z,90.87
2022-12-05T00:26:52.272Z,93.33
2022-12-05T00:29:20.702Z,102.13
2022-12-05T00:31:49.484Z,94.77
2022-12-05T00:34:18.140Z,95.60
2022-12-05T00:36:46.705Z,94.70
2022-12-05T00:39:15.493Z,93.73
2022-12-05T00:41:44.692Z,107.40
2022-12-05T00:44:14.517Z,100.07
2022-12-05T00:46:42.946Z,100.77
2022-12-05T00:49:12.778Z,104.00
2022-12-05T00:51:44.449Z,98.97
2022-12-05T00:54:16.929Z,100.60
2022-12-05T00:56:46.002Z,106.93
2022-12-05T00:59:19.257Z,107.87
2022-12-05T01:01:49.984Z,110.20
2022-12-05T01:04:22.199Z,109.83
2022-12-05T01:06:52.045Z,112.67
2022-12-05T01:09:22.118Z,111.67
2022-12-05T01:11:50.974Z,105.47
2022-12-05T01:14:22.601Z,102.57
2022-12-05T01:16:53.171Z,100.53
2022-12-05T01:19:31.366Z,92.17
2022-12-05T01:22:01.184Z,103.63
2022-12-05T01:24:31.185Z,104.03
2022-12-05T01:27:00.293Z,106.97
2022-12-05T01:29:29.002Z,106.00
2022-12-05T01:31:57.777Z,107.87
2022-12-05T01:34:27.118Z,105.47
2022-12-05T01:36:55.552Z,101.17
2022-12-05T01:39:24.112Z,107.97
2022-12-05T01:41:53.115Z,100.80
2022-12-05T01:44:24.333Z,90.37
2022-12-05T01:46:54.410Z,99.27
2022-12-05T01:49:38.793Z,93.40
2022-12-05T01:52:16.733Z,95.27
2022-12-05T01:54:47.323Z,93.43
2022-12-05T01:57:16.731Z,90.40
2022-12-05T01:59:55.759Z,92.47
2022-12-05T02:02:24.612Z,89.87
2022-12-05T02:05:12.204Z,92.33
2022-12-05T02:07:42.211Z,82.57
2022-12-05T02:10:11.433Z,83.30
2022-12-05T02:12:40.417Z,81.73
2022-12-05T02:15:39.065Z,84.67
2022-12-05T02:18:35.197Z,84.20
2022-12-05T02:21:18.346Z,82.50
2022-12-05T02:24:46.261Z,87.47
2022-12-05T02:27:29.473Z,101.67
2022-12-05T02:30:08.308Z,90.93
2022-12-05T02:33:03.549Z,99.23
2022-12-05T02:35:41.398Z,83.43
2022-12-05T02:38:40.465Z,88.67
2022-12-05T02:42:03.343Z,85.50
2022-12-05T02:44:40.904Z,84.43
2022-12-05T02:47:12.006Z,85.90
2022-12-05T02:49:43.372Z,74.53
2022-12-05T02:52:15.726Z,83.33
2022-12-05T02:54:48.185Z,85.40
2022-12-05T02:57:18.201Z,76.97
2022-12-05T02:59:46.659Z,73.23
2022-12-05T03:02:35.200Z,72.83
2022-12-05T03:05:17.787Z,75.00
2022-12-05T03:07:48.941Z,74.70
2022-12-05T03:10:23.533Z,76.50
2022-12-05T03:12:58.132Z,72.43
2022-12-05T03:15:50.227Z,72.67
2022-12-05T03:18:24.470Z,63.83
2022-12-05T03:21:03.990Z,67.13
2022-12-05T03:23:43.400Z,75.10
2022-12-05T03:26:47.310Z,67.73
2022-12-05T03:29:32.947Z,67.93
2022-12-05T03:32:11.149Z,64.57
2022-12-05T03:35:01.155Z,60.87
2022-12-05T03:37:49.890Z,58.17
2022-12-05T03:40:37.022Z,61.53
2022-12-05T03:43:36.150Z,63.43
2022-12-05T03:46:13.285Z,58.37
2022-12-05T03:49:09.633Z,60.97
2022-12-05T03:52:51.234Z,58.03
2022-12-05T03:55:27.053Z,56.10
2022-12-05T03:58:11.166Z,61.77
2022-12-05T04:00:45.091Z,64.40
2022-12-05T04:03:23.818Z,63.70
2022-12-05T04:06:00.595Z,62.10
2022-12-05T04:08:34.623Z,57.97
2022-12-05T04:11:08.883Z,57.47
2022-12-05T04:13:44.103Z,52.40
2022-12-05T04:16:44.407Z,56.53
2022-12-05T04:19:22.668Z,58.80
2022-12-05T04:21:55.310Z,54.73
2022-12-05T04:24:51.169Z,55.50
2022-12-05T04:27:54.831Z,58.60
2022-12-05T04:30:27.089Z,56.37
2022-12-05T04:33:41.505Z,61.23
2022-12-05T04:36:36.031Z,55.30
2022-12-05T04:39:10.711Z,58.00
2022-12-05T04:42:05.669Z,59.60
2022-12-05T04:44:47.463Z,56.60
2022-12-05T04:47:18.640Z,54.70
2022-12-05T04:49:53.380Z,58.27
2022-12-05T04:52:22.443Z,56.80
2022-12-05T04:55:09.551Z,57.80
2022-12-05T04:58:04.590Z,56.93
2022-12-05T05:00:36.255Z,57.23
2022-12-05T05:03:22.585Z,57.57
2022-12-05T05:05:56.447Z,58.97
2022-12-05T05:08:29.006Z,59.30
2022-12-05T05:11:13.030Z,52.60
2022-12-05T05:13:41.447Z,59.53
2022-12-05T05:16:14.315Z,56.17
2022-12-05T05:18:42.741Z,62.23
2022-12-05T05:21:25.807Z,69.10
2022-12-05T05:23:55.092Z,55.20
2022-12-05T05:26:24.703Z,55.60
2022-12-05T05:28:53.861Z,53.00
2022-12-05T05:31:22.799Z,54.03
2022-12-05T05:33:57.085Z,54.53
2022-12-05T05:36:28.016Z,51.87
2022-12-05T05:39:02.197Z,54.03
2022-12-05T05:41:38.009Z,48.87
2022-12-05T05:44:06.916Z,55.47
2022-12-05T05:46:36.849Z,55.70
2022-12-05T05:49:05.949Z,53.90
2022-12-05T05:51:34.779Z,54.63
2022-12-05T05:54:03.446Z,52.90
2022-12-05T05:56:31.857Z,57.80
2022-12-05T05:59:03.553Z,57.73
2022-12-05T06:01:32.453Z,54.20
2022-12-05T06:04:01.040Z,48.77
2022-12-05T06:06:29.740Z,51.90
2022-12-05T06:08:58.307Z,55.03
2022-12-05T06:11:29.134Z,54.57
2022-12-05T06:14:01.100Z,57.83
2022-12-05T06:16:30.628Z,57.93
2022-12-05T06:18:59.738Z,58.07
2022-12-05T06:21:28.685Z,55.03
2022-12-05T06:23:57.215Z,58.60
2022-12-05T06:26:25.769Z,57.97
2022-12-05T06:28:54.683Z,50.40
2022-12-05T06:31:27.108Z,53.20
2022-12-05T06:33:56.134Z,51.53
2022-12-05T06:36:25.414Z,58.53
2022-12-05T06:38:53.855Z,53.77
2022-12-05T06:41:24.513Z,57.57
2022-12-05T06:44:01.652Z,59.20
2022-12-05T06:46:31.036Z,57.40
2022-12-05T06:49:00.079Z,49.97
2022-12-05T06:51:28.670Z,55.93
2022-12-05T06:53:57.511Z,51.90
2022-12-05T06:56:25.946Z,52.73
2022-12-05T06:58:55.733Z,52.17
2022-12-05T07:01:41.522Z,51.73
2022-12-05T07:04:13.656Z,48.87
2022-12-05T07:06:48.691Z,52.37
2022-12-05T07:09:21.425Z,50.93
2022-12-05T07:11:51.613Z,53.03
2022-12-05T07:17:09.011Z,55.47
2022-12-05T07:19:37.766Z,55.57
2022-12-05T07:22:09.504Z,52.10
2022-12-05T07:24:42.279Z,50.83
2022-12-05T07:27:10.713Z,51.80
2022-12-05T07:29:39.151Z,55.33
2022-12-05T07:32:08.377Z,60.17
2022-12-05T07:34:38.822Z,57.90
2022-12-05T07:37:07.317Z,58.67
2022-12-05T07:39:35.822Z,56.23
2022-12-05T07:42:04.277Z,55.73
2022-12-05T07:44:32.787Z,55.57
2022-12-05T07:47:01.338Z,50.80
2022-12-05T07:49:30.487Z,50.23
2022-12-05T07:51:58.975Z,55.70
2022-12-05T07:54:27.383Z,56.87
2022-12-05T07:56:55.857Z,51.83
2022-12-05T07:59:24.299Z,58.80
2022-12-05T08:01:52.856Z,54.27
2022-12-05T08:04:21.469Z,54.03
2022-12-05T08:06:50.000Z,58.60
2022-12-05T08:09:18.473Z,56.17
2022-12-05T08:11:52.151Z,54.30
2022-12-05T08:14:21.666Z,55.50
2022-12-05T08:16:50.217Z,61.13
2022-12-05T08:19:19.137Z,49.17
2022-12-05T08:21:47.708Z,49.57
2022-12-05T08:24:16.228Z,44.63
2022-12-05T08:26:44.666Z,43.00
2022-12-05T08:29:17.111Z,45.93
2022-12-05T08:31:49.024Z,41.10
2022-12-05T08:34:18.960Z,43.40
2022-12-05T08:36:47.855Z,46.80
2022-12-05T08:39:20.302Z,46.77
2022-12-05T08:41:49.533Z,42.07
2022-12-05T08:44:18.688Z,44.23
2022-12-05T08:46:50.359Z,40.87
2022-12-05T08:49:19.716Z,42.87
2022-12-05T08:51:48.276Z,43.37
2022-12-05T08:54:16.742Z,46.23
2022-12-05T08:56:45.191Z,38.53
2022-12-05T08:59:17.034Z,36.60
2022-12-05T09:01:45.695Z,37.63
2022-12-05T09:04:14.335Z,37.47
2022-12-05T09:06:43.632Z,40.20
2022-12-05T09:09:13.479Z,39.17
2022-12-05T09:11:46.741Z,34.80
2022-12-05T09:14:15.753Z,35.83
2022-12-05T09:16:47.221Z,32.87
2022-12-05T09:19:23.516Z,34.73
2022-12-05T09:21:52.058Z,30.53
2022-12-05T09:24:20.848Z,37.43
2022-12-05T09:26:49.308Z,34.50
2022-12-05T09:29:18.244Z,30.17
2022-12-05T09:31:50.174Z,30.73
2022-12-05T09:34:20.160Z,32.17
2022-12-05T09:37:05.481Z,32.30
2022-12-05T09:39:38.980Z,27.20
2022-12-05T09:42:43.623Z,29.87
2022-12-05T09:45:19.776Z,26.70
2022-12-05T09:47:58.066Z,26.43
2022-12-05T09:50:43.374Z,24.80
2022-12-05T09:53:14.822Z,25.37
2022-12-05T09:56:07.784Z,27.80
2022-12-05T09:58:48.275Z,23.53
2022-12-05T10:01:42.039Z,24.50
2022-12-05T10:04:41.169Z,26.47
2022-12-05T10:07:31.309Z,26.63
2022-12-05T10:10:40.305Z,26.70
2022-12-05T10:13:26.446Z,24.57
2022-12-05T10:15:58.581Z,24.40
2022-12-05T10:18:56.677Z,24.70
2022-12-05T10:21:59.442Z,25.23
2022-12-05T10:24:46.310Z,21.73
2022-12-05T10:27:39.480Z,25.90
2022-12-05T10:30:16.670Z,22.90
2022-12-05T10:32:51.071Z,24.63
2022-12-05T10:35:25.483Z,22.60
2022-12-05T10:38:01.986Z,22.07
2022-12-05T10:40:38.387Z,19.03
2022-12-05T10:43:08.940Z,22.33
2022-12-05T10:45:48.164Z,22.07
2022-12-05T10:48:20.077Z,22.53
2022-12-05T10:50:54.637Z,21.60
2022-12-05T10:53:27.386Z,21.33
2022-12-05T10:56:28.859Z,22.77
2022-12-05T10:58:57.121Z,21.07
2022-12-05T11:01:27.774Z,23.47
2022-12-05T11:04:13.795Z,24.30
2022-12-05T11:07:01.519Z,20.83
2022-12-05T11:09:40.109Z,25.60
2022-12-05T11:12:27.052Z,21.63
2022-12-05T11:15:00.852Z,22.33
2022-12-05T11:17:36.224Z,22.47
2022-12-05T11:20:26.099Z,25.90
2022-12-05T11:22:59.523Z,23.60
2022-12-05T11:25:34.946Z,23.90
2022-12-05T11:28:22.963Z,21.93
2022-12-05T11:30:56.934Z,25.33
2022-12-05T11:33:28.657Z,23.10
2022-12-05T11:36:20.283Z,24.07
2022-12-05T11:38:48.918Z,23.70
2022-12-05T11:41:35.837Z,21.37
2022-12-05T11:44:54.729Z,23.93
2022-12-05T11:48:09.778Z,24.90
2022-12-05T11:50:40.945Z,20.03
2022-12-05T11:53:17.489Z,22.90
2022-12-05T11:55:53.308Z,23.00
2022-12-05T11:58:53.983Z,21.77
2022-12-05T12:02:07.304Z,18.67
2022-12-05T12:05:00.731Z,20.00
2022-12-05T12:07:54.309Z,19.53
2022-12-05T12:11:12.944Z,22.40
2022-12-05T12:13:44.191Z,21.00
2022-12-05T12:16:58.547Z,21.30
2022-12-05T12:19:27.001Z,19.97
2022-12-05T12:22:24.668Z,19.17
2022-12-05T12:25:12.850Z,22.00
2022-12-05T12:28:29.320Z,19.30
2022-12-05T12:31:36.733Z,19.63
2022-12-05T12:34:17.326Z,18.37
2022-12-05T12:37:36.028Z,20.13
2022-12-05T12:40:25.449Z,19.27
2022-12-05T12:43:30.845Z,20.83
2022-12-05T12:46:38.561Z,23.37
2022-12-05T12:49:22.936Z,19.83
2022-12-05T12:52:00.037Z,18.43
2022-12-05T12:57:55.607Z,18.63
2022-12-05T13:01:13.355Z,22.57
2022-12-05T13:03:42.413Z,22.63
2022-12-05T13:06:22.442Z,21.40
2022-12-05T13:08:58.849Z,20.20
2022-12-05T13:11:32.324Z,19.73
2022-12-05T13:14:03.196Z,20.57
2022-12-05T13:16:45.612Z,17.93
2022-12-05T13:19:50.384Z,22.43
2022-12-05T13:22:24.240Z,18.33
2022-12-05T13:24:54.282Z,19.00
2022-12-05T13:27:27.879Z,18.70
2022-12-05T13:30:03.567Z,18.07
2022-12-05T13:32:42.549Z,17.90
2022-12-05T13:35:56.559Z,17.67
2022-12-05T13:38:50.482Z,18.00
2022-12-05T13:41:36.413Z,18.47
2022-12-05T13:44:12.598Z,22.13
2022-12-05T13:46:43.470Z,19.83
2022-12-05T13:49:49.203Z,19.80
2022-12-05T13:52:25.244Z,21.23
2022-12-05T13:55:13.393Z,18.90
2022-12-05T13:57:44.284Z,19.83
2022-12-05T14:00:12.666Z,19.17
2022-12-05T14:02:43.618Z,19.50
2022-12-05T14:05:17.605Z,20.27
2022-12-05T14:08:03.602Z,19.73
2022-12-05T14:10:32.489Z,18.63
2022-12-05T14:13:22.138Z,20.63
2022-12-05T14:15:52.572Z,18.93
2022-12-05T14:18:44.490Z,18.23
2022-12-05T14:21:12.906Z,21.43
2022-12-05T14:24:09.290Z,19.73
2022-12-05T14:27:08.714Z,18.30
2022-12-05T14:30:11.458Z,20.83
2022-12-05T14:32:42.594Z,21.20
2022-12-05T14:35:51.921Z,18.07
2022-12-05T14:38:32.282Z,19.40
2022-12-05T14:41:34.594Z,20.00
2022-12-05T14:44:08.609Z,20.03
2022-12-05T14:46:37.524Z,20.63
2022-12-05T14:49:53.750Z,16.57
2022-12-05T14:52:26.451Z,16.90
2022-12-05T14:55:02.161Z,20.93
2022-12-05T14:57:37.674Z,21.07
2022-12-05T15:00:10.364Z,18.87
2022-12-05T15:02:46.145Z,22.97
2022-12-05T15:05:31.106Z,24.27
2022-12-05T15:08:01.669Z,20.60
2022-12-05T15:10:39.681Z,17.60
2022-12-05T15:13:28.541Z,21.37
2022-12-05T15:16:09.783Z,18.90
2022-12-05T15:18:59.089Z,22.03
2022-12-05T15:21:43.649Z,19.87
2022-12-05T15:24:19.715Z,18.73
2022-12-05T15:26:59.943Z,21.63
2022-12-05T15:29:32.850Z,20.97
2022-12-05T15:32:07.937Z,23.17
2022-12-05T15:35:02.333Z,18.03
2022-12-05T15:37:35.765Z,20.20
2022-12-05T15:40:09.774Z,20.93
2022-12-05T15:42:41.160Z,25.87
2022-12-05T15:45:14.892Z,24.90
2022-12-05T15:47:49.019Z,23.53
2022-12-05T15:50:22.648Z,22.30
2022-12-05T15:53:06.718Z,21.97
2022-12-05T15:55:46.223Z,21.47
2022-12-05T15:58:33.724Z,21.87
2022-12-05T16:01:10.220Z,22.33
2022-12-05T16:03:46.489Z,21.13
2022-12-05T16:06:27.753Z,22.10
2022-12-05T16:08:57.021Z,20.40
2022-12-05T16:11:25.568Z,22.23
2022-12-05T16:13:59.049Z,21.60
2022-12-05T16:16:36.574Z,21.90
2022-12-05T16:19:15.660Z,19.77
2022-12-05T16:21:48.041Z,19.97
2022-12-05T16:24:29.796Z,22.00
2022-12-05T16:27:19.433Z,21.50
2022-12-05T16:29:48.126Z,21.63
2022-12-05T16:32:26.103Z,23.73
2022-12-05T16:34:54.466Z,20.07
2022-12-05T16:37:29.174Z,20.87
2022-12-05T16:39:58.365Z,23.20
2022-12-05T16:42:29.553Z,22.87
2022-12-05T16:45:05.507Z,22.40
2022-12-05T16:47:42.774Z,19.53
2022-12-05T16:50:35.142Z,22.10
2022-12-05T16:53:09.289Z,22.77
2022-12-05T16:55:45.252Z,22.37
2022-12-05T16:58:24.843Z,24.83
2022-12-05T17:00:53.808Z,19.50
2022-12-05T17:03:37.528Z,22.87
2022-12-05T17:06:06.391Z,23.30
2022-12-05T17:08:34.948Z,21.60
2022-12-05T17:11:04.230Z,26.27
2022-12-05T17:13:40.783Z,27.63
2022-12-05T17:16:09.806Z,28.23
2022-12-05T17:18:38.498Z,23.57
2022-12-05T17:21:09.613Z,24.83
2022-12-05T17:23:43.168Z,20.43
2022-12-05T17:26:19.334Z,20.57
2022-12-05T17:29:00.220Z,25.60
2022-12-05T17:31:28.883Z,24.00
2022-12-05T17:33:57.564Z,23.37
2022-12-05T17:36:26.123Z,22.23
2022-12-05T17:38:54.691Z,20.13
2022-12-05T17:41:26.395Z,23.63
2022-12-05T17:43:55.173Z,24.00
2022-12-05T17:46:25.571Z,23.73
2022-12-05T17:49:00.592Z,21.40
2022-12-05T17:51:30.484Z,22.20
2022-12-05T17:53:59.317Z,20.70
2022-12-05T17:56:39.930Z,22.17
2022-12-05T17:59:08.467Z,19.43
2022-12-05T18:01:39.505Z,21.53
2022-12-05T18:04:09.734Z,19.43
2022-12-05T18:06:39.456Z,19.47
2022-12-05T18:09:10.205Z,22.70
2022-12-05T18:11:38.649Z,20.27
2022-12-05T18:14:14.088Z,21.23
2022-12-05T18:16:45.823Z,21.00
2022-12-05T18:19:17.609Z,18.37
2022-12-05T18:21:48.894Z,21.17
2022-12-05T18:24:19.618Z,22.27
2022-12-05T18:26:48.152Z,21.47
2022-12-05T18:29:16.756Z,21.17
2022-12-05T18:31:45.495Z,22.13
2022-12-05T18:34:13.865Z,21.10
2022-12-05T18:36:42.785Z,22.40
2022-12-05T18:39:15.705Z,20.87
2022-12-05T18:41:50.677Z,20.87
2022-12-05T18:44:19.227Z,19.80
2022-12-05T18:46:47.854Z,21.50
2022-12-05T18:49:16.737Z,19.17
2022-12-05T18:51:45.233Z,21.90
2022-12-05T18:54:13.625Z,18.90
2022-12-05T18:57:17.472Z,22.37
2022-12-05T18:59:46.138Z,20.20
2022-12-05T19:02:15.102Z,19.77
2022-12-05T19:04:43.581Z,18.93
2022-12-05T19:07:12.261Z,17.93
2022-12-05T19:09:40.699Z,20.97
2022-12-05T19:12:10.927Z,19.07
2022-12-05T19:14:39.560Z,18.37
2022-12-05T19:17:08.052Z,18.70
2022-12-05T19:19:36.547Z,17.93
2022-12-05T19:22:05.108Z,17.93
2022-12-05T19:24:36.642Z,20.17
2022-12-05T19:27:05.138Z,15.03
2022-12-05T19:29:33.619Z,17.83
2022-12-05T19:32:02.301Z,15.53
2022-12-05T19:34:31.136Z,19.43
2022-12-05T19:36:59.526Z,16.90
2022-12-05T19:39:31.357Z,18.43
2022-12-05T19:42:00.295Z,17.30
2022-12-05T19:44:28.993Z,17.07
2022-12-05T19:46:57.436Z,17.73
2022-12-05T19:49:26.362Z,18.17
2022-12-05T19:51:54.847Z,16.33
2022-12-05T19:54:24.199Z,16.60
2022-12-05T19:56:58.156Z,14.47
2022-12-05T19:59:26.638Z,16.93
2022-12-05T20:01:55.325Z,14.67
2022-12-05T20:04:24.068Z,16.10
2022-12-05T20:06:52.657Z,15.27
2022-12-05T20:09:23.376Z,15.40
2022-12-05T20:11:55.636Z,15.33
2022-12-05T20:14:26.639Z,12.80
2022-12-05T20:16:58.038Z,14.77
2022-12-05T20:19:26.672Z,17.20
2022-12-05T20:21:55.546Z,15.47
2022-12-05T20:24:27.161Z,16.70
2022-12-05T20:26:55.590Z,16.47
2022-12-05T20:29:26.900Z,13.77
2022-12-05T20:31:58.084Z,14.67
2022-12-05T20:34:29.238Z,15.13
2022-12-05T20:36:57.919Z,15.17
2022-12-05T20:39:28.035Z,12.17
2022-12-05T20:41:56.846Z,15.07
2022-12-05T20:44:25.450Z,13.97
2022-12-05T20:46:54.624Z,14.43
2022-12-05T20:49:23.022Z,12.73
2022-12-05T20:51:51.553Z,11.60
2022-12-05T20:54:20.101Z,15.17
2022-12-05T20:56:49.270Z,13.00
2022-12-05T20:59:17.796Z,15.13
2022-12-05T21:01:47.509Z,12.87
2022-12-05T21:04:16.477Z,12.17
2022-12-05T21:06:46.681Z,13.10
2022-12-05T21:09:26.764Z,12.83
2022-12-05T21:11:56.866Z,13.33
2022-12-05T21:14:25.927Z,15.20
2022-12-05T21:16:54.442Z,12.67
2022-12-05T21:19:23.400Z,13.17
2022-12-05T21:21:53.878Z,16.40
2022-12-05T21:24:22.679Z,12.20
2022-12-05T21:26:51.962Z,12.40
2022-12-05T21:29:20.918Z,12.90
2022-12-05T21:31:52.599Z,14.70
2022-12-05T21:34:21.781Z,12.77
2022-12-05T21:36:50.215Z,13.17
2022-12-05T21:39:19.061Z,15.13
2022-12-05T21:41:47.511Z,12.57
2022-12-05T21:44:16.020Z,13.03
2022-12-05T21:46:44.630Z,12.13
2022-12-05T21:49:13.512Z,12.53
2022-12-05T21:51:42.219Z,14.70
2022-12-05T21:54:10.802Z,14.10
2022-12-05T21:56:39.878Z,15.03
2022-12-05T21:59:08.365Z,13.90
2022-12-05T22:01:36.815Z,14.03
2022-12-05T22:04:05.329Z,14.00
2022-12-05T22:06:34.306Z,14.30
2022-12-05T22:09:03.245Z,13.27
2022-12-05T22:11:34.744Z,14.83
2022-12-05T22:14:03.158Z,16.33
2022-12-05T22:16:33.558Z,16.93
2022-12-05T22:19:02.748Z,15.27
2022-12-05T22:21:33.933Z,11.87
2022-12-05T22:24:02.819Z,14.27
2022-12-05T22:26:33.660Z,14.63
2022-12-05T22:29:04.704Z,16.00
2022-12-05T22:31:33.462Z,14.60
2022-12-05T22:34:02.544Z,13.30
2022-12-05T22:36:32.362Z,16.93
2022-12-05T22:39:01.039Z,14.30
2022-12-05T22:41:29.468Z,15.33
2022-12-05T22:44:00.381Z,15.43
2022-12-05T22:46:29.838Z,16.13
2022-12-05T22:48:58.685Z,15.20
2022-12-05T22:51:27.951Z,15.67
2022-12-05T22:53:56.570Z,15.60
2022-12-05T22:56:28.880Z,14.47
2022-12-05T22:58:59.933Z,14.70
2022-12-05T23:01:36.062Z,15.37
2022-12-05T23:04:11.486Z,14.23
2022-12-05T23:06:40.522Z,13.70
2022-12-05T23:09:11.635Z,13.30
2022-12-05T23:11:40.145Z,12.87
2022-12-05T23:14:08.734Z,13.50
2022-12-05T23:16:37.582Z,14.67
2022-12-05T23:19:08.344Z,14.57
2022-12-05T23:21:41.759Z,16.27
2022-12-05T23:24:13.391Z,14.73
2022-12-05T23:26:45.768Z,13.20
2022-12-05T23:29:15.522Z,13.50
2022-12-05T23:31:44.337Z,16.87
2022-12-05T23:34:13.074Z,14.43
2022-12-05T23:36:41.491Z,12.57
2022-12-05T23:39:10.023Z,13.47
2022-12-05T23:41:38.723Z,11.97
2022-12-05T23:44:07.174Z,13.97
2022-12-05T23:46:36.092Z,15.83
2022-12-05T23:49:04.788Z,12.80
2022-12-05T23:51:34.080Z,12.17
2022-12-05T23:54:04.072Z,12.90
2022-12-05T23:56:34.540Z,13.67
2022-12-05T23:59:06.059Z,11.93
